Latest Weather Observations for Blackall

IDQ60801

Issued at 11:02 am EST Tuesday 23 December 2014 (issued every 30 minutes, with the page automatically refreshed every 10 minutes)

About weather observations | Map of weather stations | Latest weather observations for QLD | Other Formats
Station Details ID: 036034 Name: BLACKALL AIRPORT Lat: -24.43 Lon: 145.43 Height: 281.3 m
Data from the previous 72 hours. | See also: Recent months at Blackall
Date/Time
EST
Temp
°C
App
Temp
°C
Dew
Point
Rel
Hum
%
Delta-T
°C
Wind Press
QNH
hPa
Press
MSL
hPa
Rain
since 9 am
mm
Dir
 
Spd
km/h
Gust
km/h
Spd
kts
Gust
kts
23/11:00am 31.2 28.8 14.4 36 10.3 N 20 32 11 17 1013.5 1011.6 0.0
23/10:30am 31.1 28.4 14.7 37 10.1 NNE 22 32 12 17 1013.6 1011.7 0.0
23/10:00am 30.5 27.9 15.0 39 9.6 NNE 22 33 12 18 1013.8 1011.9 0.0
23/09:30am 29.2 26.1 15.7 44 8.4 NNE 26 37 14 20 1014.0 1012.1 0.0
23/09:00am 28.4 26.1 15.7 46 7.9 NNE 22 35 12 19 1014.3 1012.3 0.0
23/08:30am 27.4 24.7 15.7 48 7.2 NNE 24 33 13 18 1014.2 1012.2 0.0
23/08:00am 26.9 23.7 16.2 52 6.7 NNE 28 37 15 20 1014.5 1012.5 0.0
23/07:30am 26.2 23.0 16.4 54 6.1 NNE 28 37 15 20 1014.4 1012.4 0.0
23/07:00am 25.2 22.3 16.1 57 5.6 NNE 26 37 14 20 1014.2 1012.2 0.0
23/06:30am 24.8 23.3 16.2 58 5.3 NNE 19 28 10 15 1013.7 1011.8 0.0
23/06:00am 24.2 23.0 16.2 61 4.9 NE 17 22 9 12 1013.5 1011.6 0.0
23/05:30am 23.6 23.1 15.9 62 4.7 NE 13 17 7 9 1013.1 1011.1 0.0
23/05:00am 23.2 22.7 15.0 60 4.9 NE 11 15 6 8 1012.7 1010.7 0.0
23/04:30am 23.3 23.5 14.8 59 5.1 NE 7 9 4 5 1012.4 1010.4 0.0
23/04:00am 24.0 23.5 15.0 57 5.4 NE 11 13 6 7 1012.0 1010.0 0.0
23/03:30am 24.3 23.8 15.0 56 5.6 NE 11 13 6 7 1011.8 1009.8 0.0
23/03:00am 24.7 23.9 15.1 55 5.8 NE 13 15 7 8 1011.6 1009.6 0.0
23/02:30am 24.9 24.1 15.0 54 6.0 NE 13 17 7 9 1011.4 1009.4 0.0
23/02:00am 25.2 24.7 14.9 52 6.3 NE 11 13 6 7 1011.7 1009.7 0.0
23/01:30am 25.9 25.5 15.3 52 6.5 NE 11 19 6 10 1012.0 1010.0 0.0
23/01:00am 26.7 24.8 15.1 49 7.1 NE 19 22 10 12 1012.0 1010.0 0.0
23/12:30am 27.2 25.3 15.2 47 7.4 NE 19 26 10 14 1012.2 1010.2 0.0
23/12:00am 27.6 25.7 15.3 47 7.6 NE 19 24 10 13 1012.3 1010.3 0.0
 
Date/Time
EST
Temp
°C
App
Temp
°C
Dew
Point
Rel
Hum
%
Delta-T
°C
Wind Press
QNH
hPa
Press
MSL
hPa
Rain
since 9 am
mm
Dir
 
Spd
km/h
Gust
km/h
Spd
kts
Gust
kts
22/11:30pm 28.1 26.4 15.7 46 7.7 NE 19 22 10 12 1012.5 1010.5 0.0
22/11:00pm 28.6 26.8 15.5 45 8.1 NE 19 30 10 16 1012.5 1010.5 0.0
22/10:30pm 29.0 27.0 15.5 44 8.4 NE 20 32 11 17 1012.5 1010.5 0.0
22/10:00pm 29.3 27.7 15.1 42 8.8 NE 17 22 9 12 1012.6 1010.6 0.0
22/09:30pm 29.7 28.0 14.7 40 9.2 NE 17 24 9 13 1012.3 1010.3 0.0
22/09:00pm 30.4 28.1 14.1 37 10.0 NNE 19 26 10 14 1012.0 1010.0 0.0
22/08:30pm 30.9 29.1 13.2 34 10.7 NE 15 20 8 11 1011.7 1009.7 0.0
22/08:00pm 31.6 29.7 12.9 32 11.3 NNE 15 20 8 11 1011.6 1009.6 0.0
22/07:30pm 32.2 29.7 12.4 30 11.9 NNE 17 24 9 13 1011.5 1009.5 0.0
22/07:00pm 33.2 30.3 12.2 28 12.6 NNE 19 30 10 16 1011.1 1009.1 0.0
22/06:30pm 33.9 30.7 11.1 25 13.5 NE 19 24 10 13 1011.0 1009.0 0.0
22/06:00pm 34.6 31.5 10.4 23 14.2 NE 17 28 9 15 1010.8 1008.8 0.0
22/05:30pm 35.3 32.8 11.0 23 14.4 NE 15 24 8 13 1010.3 1008.4 0.0
22/05:00pm 35.3 31.9 10.4 22 14.7 NNE 19 32 10 17 1010.0 1008.1 0.0
22/04:30pm 35.1 31.8 10.9 23 14.4 NNE 19 28 10 15 1010.1 1008.2 0.0
22/04:00pm 35.9 34.1 12.2 24 14.4 NNE 13 32 7 17 1010.2 1008.3 0.0
22/03:30pm 36.8 33.9 12.3 23 14.9 NE 19 32 10 17 1010.6 1008.6 0.0
22/03:00pm 35.6 32.6 11.9 24 14.3 NE 19 28 10 15 1011.0 1009.0 0.0
22/02:30pm 35.7 33.1 12.0 24 14.3 N 17 39 9 21 1011.3 1009.3 0.0
22/02:00pm 35.5 33.6 11.8 24 14.3 NNE 13 32 7 17 1011.8 1009.8 0.0
22/01:30pm 34.6 31.7 12.3 26 13.5 N 19 32 10 17 1012.3 1010.3 0.0
22/01:00pm 34.9 32.5 12.5 25 13.6 NNE 17 32 9 17 1012.7 1010.7 0.0
22/12:30pm 34.0 31.0 12.4 27 13.0 N 20 33 11 18 1013.4 1011.5 0.0
22/12:00pm 33.3 30.6 13.4 30 12.2 N 20 33 11 18 1013.8 1011.9 0.0
22/11:30am 33.4 30.5 14.0 31 12.0 N 22 33 12 18 1014.3 1012.3 0.0
22/11:00am 31.6 28.2 13.8 34 10.9 N 24 32 13 17 1014.6 1012.6 0.0
22/10:30am 30.9 27.6 14.1 36 10.3 N 24 37 13 20 1014.9 1012.9 0.0
22/10:00am 30.5 27.3 14.2 37 10.0 N 24 35 13 19 1015.0 1013.0 0.0
22/09:30am 30.4 26.7 14.9 39 9.6 N 28 37 15 20 1014.9 1012.9 0.0
22/09:00am 29.6 25.9 15.0 41 9.0 N 28 37 15 20 1014.9 1012.9 0.0
22/08:30am 28.0 24.1 14.3 43 8.3 N 28 39 15 21 1015.2 1013.2 0.0
22/08:00am 27.2 23.5 14.9 47 7.5 NNE 28 37 15 20 1015.1 1013.1 0.0
22/07:30am 26.5 23.2 14.9 49 7.1 NNE 26 41 14 22 1015.0 1013.0 0.0
22/07:00am 25.5 22.6 15.2 53 6.3 NNE 24 39 13 21 1014.9 1012.9 0.0
22/06:30am 24.9 22.7 15.0 54 6.0 NE 20 32 11 17 1014.5 1012.5 0.0
22/06:00am 24.3 22.6 14.7 55 5.8 NNE 17 22 9 12 1013.8 1011.9 0.0
22/05:30am 24.4 22.3 14.8 55 5.8 NNE 19 26 10 14 1013.2 1011.3 0.0
22/05:00am 24.6 22.5 14.7 54 6.0 NNE 19 24 10 13 1012.3 1010.3 0.0
22/04:30am 25.2 23.0 14.9 52 6.2 NNE 20 28 11 15 1012.0 1010.0 0.0
22/04:00am 25.6 22.6 14.7 51 6.6 NNE 24 35 13 19 1011.6 1009.6 0.0
22/03:30am 25.8 23.1 14.6 50 6.8 NNE 22 30 12 16 1011.5 1009.5 0.0
22/03:00am 25.8 24.1 14.6 50 6.8 NNE 17 22 9 12 1011.5 1009.5 0.0
22/02:30am 26.0 24.7 14.8 50 6.8 NE 15 20 8 11 1011.5 1009.5 0.0
22/02:00am 26.0 24.6 14.5 49 7.0 NE 15 19 8 10 1011.6 1009.6 0.0
22/01:30am 26.3 24.8 14.1 47 7.3 NE 15 20 8 11 1011.6 1009.6 0.0
22/01:00am 26.4 25.2 13.9 46 7.5 NNE 13 17 7 9 1011.9 1009.9 0.0
22/12:30am 27.1 25.6 14.1 44 7.8 NE 15 22 8 12 1012.2 1010.2 0.0
22/12:00am 26.9 26.1 14.0 45 7.8 NNE 11 13 6 7 1012.5 1010.5 0.0
 
Date/Time
EST
Temp
°C
App
Temp
°C
Dew
Point
Rel
Hum
%
Delta-T
°C
Wind Press
QNH
hPa
Press
MSL
hPa
Rain
since 9 am
mm
Dir
 
Spd
km/h
Gust
km/h
Spd
kts
Gust
kts
21/11:30pm 27.5 26.2 13.8 43 8.2 NNE 13 17 7 9 1012.7 1010.7 0.0
21/11:00pm 28.4 26.9 13.1 39 9.1 NNE 13 20 7 11 1012.8 1010.8 0.0
21/10:30pm 28.7 26.8 13.0 38 9.4 NE 15 22 8 12 1012.7 1010.7 0.0
21/10:00pm 29.6 26.7 12.9 35 10.0 NNE 20 28 11 15 1012.4 1010.4 0.0
21/09:30pm 30.1 27.5 12.1 33 10.7 NE 17 24 9 13 1012.2 1010.2 0.0
21/09:00pm 30.7 27.6 11.6 31 11.3 NE 19 24 10 13 1011.9 1009.9 0.0
21/08:30pm 31.5 28.3 11.3 29 11.9 NE 19 26 10 14 1011.8 1009.8 0.0
21/08:00pm 31.8 29.1 10.5 27 12.4 NE 15 22 8 12 1011.6 1009.6 0.0
21/07:30pm 32.7 29.5 10.1 25 13.1 ENE 17 20 9 11 1011.4 1009.4 0.0
21/07:00pm 33.3 30.1 10.0 24 13.5 NE 17 24 9 13 1011.4 1009.4 0.0
21/06:30pm 33.8 29.8 10.4 24 13.7 ENE 22 28 12 15 1011.2 1009.2 0.0
21/06:00pm 34.3 32.3 10.2 23 14.1 NE 11 20 6 11 1011.0 1009.0 0.0
21/05:30pm 35.1 32.4 10.2 22 14.6 NNE 15 26 8 14 1010.8 1008.8 0.0
21/05:00pm 35.3 32.0 9.7 21 14.9 NNE 17 24 9 13 1010.7 1008.7 0.0
21/04:30pm 35.0 31.3 9.4 21 14.8 NE 19 28 10 15 1010.8 1008.8 0.0
21/04:00pm 35.8 32.3 10.8 22 14.9 NNE 20 30 11 16 1011.0 1009.0 0.0
21/03:30pm 35.6 32.2 10.6 22 14.8 ENE 19 26 10 14 1011.3 1009.3 0.0
21/03:00pm 35.1 31.6 10.9 23 14.4 NNE 20 32 11 17 1011.8 1009.8 0.0
21/02:30pm 34.3 31.5 11.4 25 13.6 NNE 17 33 9 18 1012.1 1010.1 0.0
21/02:00pm 35.2 31.9 11.6 24 14.2 NNW 20 35 11 19 1012.4 1010.4 0.0
21/01:30pm 35.3 32.0 11.7 24 14.2 N 20 32 11 17 1012.8 1010.8 0.0
21/01:00pm 34.7 31.5 11.8 25 13.7 N 20 30 11 16 1013.2 1011.3 0.0
21/12:30pm 34.7 31.5 11.2 24 14.0 NE 19 26 10 14 1013.7 1011.8 0.0
21/12:00pm 34.8 31.6 11.9 25 13.8 NNE 20 33 11 18 1014.2 1012.2 0.0
21/11:30am 33.3 29.7 10.6 25 13.3 NNE 20 33 11 18 1014.5 1012.5 0.0
21/11:00am 34.0 31.0 12.4 27 13.0 NE 20 30 11 16 1014.7 1012.7 0.0
21/10:30am 32.8 29.8 12.4 29 12.3 N 20 32 11 17 1015.0 1013.0 0.0
21/10:00am 32.5 29.2 12.7 30 11.9 NNE 22 30 12 16 1015.1 1013.1 0.0
21/09:30am 31.1 27.0 11.5 30 11.5 N 24 33 13 18 1015.1 1013.1 0.0
21/09:00am 30.8 26.5 12.2 32 11.1 N 26 33 14 18 1015.0 1013.0 0.0
21/08:30am 29.8 24.7 11.8 33 10.6 N 30 39 16 21 1014.8 1012.8 0.0
21/08:00am 28.4 25.1 12.7 38 9.3 N 22 32 12 17 1014.8 1012.8 0.0
21/07:30am 27.7 24.9 13.3 41 8.6 NNE 20 26 11 14 1014.6 1012.6 0.0
21/07:00am 26.2 23.8 12.6 43 8.0 NNE 17 30 9 16 1014.0 1012.1 0.0
21/06:30am 24.8 23.4 11.0 42 7.8 NE 9 11 5 6 1013.5 1011.6 0.0
21/06:00am 23.2 22.0 11.6 48 6.6 NE 9 11 5 6 1012.9 1010.9 0.0
21/05:30am 22.9 21.4 10.7 46 6.8 NE 9 11 5 6 1012.4 1010.4 0.0
21/05:00am 22.8 21.4 10.9 47 6.7 NE 9 13 5 7 1011.8 1009.8 0.0
21/04:30am 23.7 22.4 11.4 46 7.0 NNE 9 11 5 6 1011.5 1009.5 0.0
21/04:00am 24.1 22.6 11.8 46 7.1 NNE 11 15 6 8 1011.2 1009.2 0.0
21/03:30am 24.0 22.9 12.0 47 6.9 NE 9 20 5 11 1011.1 1009.1 0.0
21/03:00am 24.1 22.8 12.4 48 6.8 NE 11 15 6 8 1010.9 1008.9 0.0
21/02:30am 25.1 23.4 12.3 45 7.4 NE 13 15 7 8 1010.5 1008.5 0.0
21/02:00am 25.0 23.7 12.6 46 7.2 ENE 11 13 6 7 1010.3 1008.4 0.0
21/01:30am 25.6 24.5 13.1 46 7.4 ENE 11 13 6 7 1010.6 1008.6 0.0
21/01:00am 25.4 24.9 12.6 45 7.5 ENE 7 9 4 5 1010.8 1008.8 0.0
21/12:30am 25.7 25.1 12.2 43 7.9 NE 7 9 4 5 1011.2 1009.2 0.0
21/12:00am 26.6 25.2 12.3 41 8.4 NNE 11 13 6 7 1011.6 1009.6 0.0
 
Date/Time
EST
Temp
°C
App
Temp
°C
Dew
Point
Rel
Hum
%
Delta-T
°C
Wind Press
QNH
hPa
Press
MSL
hPa
Rain
since 9 am
mm
Dir
 
Spd
km/h
Gust
km/h
Spd
kts
Gust
kts
20/11:30pm 27.4 25.6 12.2 39 8.9 NE 13 17 7 9 1011.9 1009.9 0.0
20/11:00pm 28.0 26.2 12.0 37 9.4 NNE 13 15 7 8 1012.1 1010.1 0.0
20/10:30pm 28.8 26.9 11.8 35 10.0 NNE 13 17 7 9 1012.0 1010.0 0.0
20/10:00pm 29.4 27.5 11.9 34 10.3 NNE 13 19 7 10 1011.9 1009.9 0.0
20/09:30pm 30.0 27.8 12.0 33 10.6 NNE 15 19 8 10 1011.7 1009.7 0.0
20/09:00pm 30.6 28.4 12.0 32 11.0 NNE 15 20 8 11 1011.4 1009.4 0.0
20/08:30pm 31.0 29.0 11.4 30 11.5 NE 13 19 7 10 1011.2 1009.2 0.0
20/08:00pm 31.6 29.4 10.9 28 12.1 NNE 13 15 7 8 1010.8 1008.8 0.0
20/07:30pm 32.5 29.9 9.3 24 13.3 NE 13 19 7 10 1010.6 1008.6 0.0
20/07:00pm 33.9 30.9 9.2 22 14.2 NE 15 19 8 10 1010.3 1008.4 0.0
20/06:30pm 35.1 32.5 9.5 21 14.9 ENE 13 17 7 9 1010.0 1008.1 0.0
20/06:00pm 35.2 32.5 8.9 20 15.2 ENE 13 15 7 8 1009.7 1007.7 0.0
20/05:30pm 35.8 32.4 9.3 20 15.4 ENE 17 24 9 13 1009.5 1007.5 0.0
20/05:00pm 36.4 34.1 9.1 19 15.9 NNE 11 17 6 9 1009.4 1007.4 0.0
20/04:30pm 37.4 36.1 9.1 18 16.5 ENE 6 19 3 10 1009.3 1007.3 0.0
20/04:00pm 36.3 35.5 8.2 18 16.1 ENE 2 13 1 7 1009.5 1007.5 0.0
20/03:30pm 35.3 34.3 8.9 20 15.2 SSE 4 13 2 7 1009.8 1007.8 0.0
20/03:00pm 36.3 34.9 9.0 19 15.8 NNE 6 13 3 7 1010.1 1008.2 0.0
20/02:30pm 35.0 33.2 9.4 21 14.8 SE 9 17 5 9 1010.6 1008.6 0.0
20/02:00pm 36.7 35.1 10.1 20 15.7 N 9 19 5 10 1011.0 1009.0 0.0
20/01:30pm 34.3 32.3 10.2 23 14.1 N 11 19 6 10 1011.6 1009.6 0.0
20/01:00pm 34.5 32.2 10.4 23 14.2 ENE 13 24 7 13 1011.9 1009.9 0.0
20/12:30pm 35.2 34.2 10.3 22 14.6 SSW 6 20 3 11 1012.4 1010.4 0.0
20/12:00pm 34.9 34.2 10.0 22 14.6 N 4 11 2 6 1013.0 1011.0 0.0
20/11:30am 34.6 33.6 10.4 23 14.2 NE 6 13 3 7 1013.4 1011.5 0.0

Other Formats:

Comma delimited format used in spreadsheet applications
http://www.bom.gov.au/fwo/IDQ60801/IDQ60801.95351.axf

JavaScript Object Notation format (JSON) in row-major order
http://www.bom.gov.au/fwo/IDQ60801/IDQ60801.95351.json